sensor_id;sensor_type;location;lat;lon;timestamp;temperature;humidity
18321;DHT22;54904;54.350;18.664;2024-02-04T00:02:15;8.60;99.90
18321;DHT22;54904;54.350;18.664;2024-02-04T00:04:43;8.60;99.90
18321;DHT22;54904;54.350;18.664;2024-02-04T00:07:11;8.60;99.90
18321;DHT22;54904;54.350;18.664;2024-02-04T00:09:38;8.70;99.90
18321;DHT22;54904;54.350;18.664;2024-02-04T00:12:05;8.70;99.90
18321;DHT22;54904;54.350;18.664;2024-02-04T00:14:32;8.70;99.90
18321;DHT22;54904;54.350;18.664;2024-02-04T00:16:59;8.70;99.90
18321;DHT22;54904;54.350;18.664;2024-02-04T00:19:26;8.70;99.90
18321;DHT22;54904;54.350;18.664;2024-02-04T00:21:55;8.70;99.90
18321;DHT22;54904;54.350;18.664;2024-02-04T00:24:22;8.70;99.90
18321;DHT22;54904;54.350;18.664;2024-02-04T00:26:49;8.70;99.90
18321;DHT22;54904;54.350;18.664;2024-02-04T00:29:16;8.70;99.90
18321;DHT22;54904;54.350;18.664;2024-02-04T00:31:43;8.70;99.90
18321;DHT22;54904;54.350;18.664;2024-02-04T00:34:10;8.80;99.90
18321;DHT22;54904;54.350;18.664;2024-02-04T00:36:37;8.80;99.90
18321;DHT22;54904;54.350;18.664;2024-02-04T00:39:05;8.80;99.90
18321;DHT22;54904;54.350;18.664;2024-02-04T00:41:33;8.80;99.90
18321;DHT22;54904;54.350;18.664;2024-02-04T00:44:00;8.80;99.90
18321;DHT22;54904;54.350;18.664;2024-02-04T00:46:27;8.80;99.90
18321;DHT22;54904;54.350;18.664;2024-02-04T00:48:54;8.70;99.90
18321;DHT22;54904;54.350;18.664;2024-02-04T00:51:22;8.70;99.90
18321;DHT22;54904;54.350;18.664;2024-02-04T00:53:49;8.70;99.90
18321;DHT22;54904;54.350;18.664;2024-02-04T00:56:17;8.60;99.90
18321;DHT22;54904;54.350;18.664;2024-02-04T00:58:44;8.30;99.90
18321;DHT22;54904;54.350;18.664;2024-02-04T01:01:11;8.60;99.90
18321;DHT22;54904;54.350;18.664;2024-02-04T01:03:39;8.60;99.90
18321;DHT22;54904;54.350;18.664;2024-02-04T01:06:06;8.60;99.90
18321;DHT22;54904;54.350;18.664;2024-02-04T01:08:33;8.60;99.90
18321;DHT22;54904;54.350;18.664;2024-02-04T01:11:00;8.60;99.90
18321;DHT22;54904;54.350;18.664;2024-02-04T01:13:29;8.50;99.90
18321;DHT22;54904;54.350;18.664;2024-02-04T01:15:56;8.50;99.90
18321;DHT22;54904;54.350;18.664;2024-02-04T01:18:23;8.50;99.90
18321;DHT22;54904;54.350;18.664;2024-02-04T01:20:50;8.50;99.90
18321;DHT22;54904;54.350;18.664;2024-02-04T01:23:17;8.50;99.90
18321;DHT22;54904;54.350;18.664;2024-02-04T01:25:44;8.50;99.90
18321;DHT22;54904;54.350;18.664;2024-02-04T01:28:11;8.60;99.90
18321;DHT22;54904;54.350;18.664;2024-02-04T01:30:39;8.60;99.90
18321;DHT22;54904;54.350;18.664;2024-02-04T01:33:06;8.60;99.90
18321;DHT22;54904;54.350;18.664;2024-02-04T01:35:33;8.50;99.90
18321;DHT22;54904;54.350;18.664;2024-02-04T01:38:00;8.60;99.90
18321;DHT22;54904;54.350;18.664;2024-02-04T01:40:27;8.50;99.90
18321;DHT22;54904;54.350;18.664;2024-02-04T01:42:54;8.60;99.90
18321;DHT22;54904;54.350;18.664;2024-02-04T01:45:21;8.60;99.90
18321;DHT22;54904;54.350;18.664;2024-02-04T01:47:51;8.60;99.90
18321;DHT22;54904;54.350;18.664;2024-02-04T01:50:19;8.60;99.90
18321;DHT22;54904;54.350;18.664;2024-02-04T01:52:47;8.60;99.90
18321;DHT22;54904;54.350;18.664;2024-02-04T01:55:15;8.60;99.90
18321;DHT22;54904;54.350;18.664;2024-02-04T01:57:42;8.60;99.90
18321;DHT22;54904;54.350;18.664;2024-02-04T02:00:10;8.50;99.90
18321;DHT22;54904;54.350;18.664;2024-02-04T02:02:40;8.50;99.90
18321;DHT22;54904;54.350;18.664;2024-02-04T02:05:08;8.50;99.90
18321;DHT22;54904;54.350;18.664;2024-02-04T02:07:36;8.50;99.90
18321;DHT22;54904;54.350;18.664;2024-02-04T02:10:03;8.50;99.90
18321;DHT22;54904;54.350;18.664;2024-02-04T02:12:36;8.50;99.90
18321;DHT22;54904;54.350;18.664;2024-02-04T02:15:11;8.50;99.90
18321;DHT22;54904;54.350;18.664;2024-02-04T02:17:44;8.50;99.90
18321;DHT22;54904;54.350;18.664;2024-02-04T02:20:21;8.40;99.90
18321;DHT22;54904;54.350;18.664;2024-02-04T02:22:52;8.40;99.90
18321;DHT22;54904;54.350;18.664;2024-02-04T02:25:28;8.40;99.90
18321;DHT22;54904;54.350;18.664;2024-02-04T02:27:57;8.30;99.90
18321;DHT22;54904;54.350;18.664;2024-02-04T02:30:24;8.40;99.90
18321;DHT22;54904;54.350;18.664;2024-02-04T02:32:51;8.30;99.90
18321;DHT22;54904;54.350;18.664;2024-02-04T02:35:20;8.30;99.90
18321;DHT22;54904;54.350;18.664;2024-02-04T02:38:03;8.30;99.90
18321;DHT22;54904;54.350;18.664;2024-02-04T02:40:43;8.30;99.90
18321;DHT22;54904;54.350;18.664;2024-02-04T02:43:12;8.20;99.90
18321;DHT22;54904;54.350;18.664;2024-02-04T02:45:41;8.30;99.90
18321;DHT22;54904;54.350;18.664;2024-02-04T02:48:10;8.20;99.90
18321;DHT22;54904;54.350;18.664;2024-02-04T02:50:38;8.20;99.90
18321;DHT22;54904;54.350;18.664;2024-02-04T02:53:05;8.20;99.90
18321;DHT22;54904;54.350;18.664;2024-02-04T02:55:32;8.20;99.90
18321;DHT22;54904;54.350;18.664;2024-02-04T02:58:01;8.20;99.90
18321;DHT22;54904;54.350;18.664;2024-02-04T03:00:28;8.20;99.90
18321;DHT22;54904;54.350;18.664;2024-02-04T03:02:54;8.20;99.90
18321;DHT22;54904;54.350;18.664;2024-02-04T03:05:22;8.20;99.90
18321;DHT22;54904;54.350;18.664;2024-02-04T03:07:49;8.30;99.90
18321;DHT22;54904;54.350;18.664;2024-02-04T03:10:16;8.30;99.90
18321;DHT22;54904;54.350;18.664;2024-02-04T03:12:43;8.30;99.90
18321;DHT22;54904;54.350;18.664;2024-02-04T03:15:11;8.30;99.90
18321;DHT22;54904;54.350;18.664;2024-02-04T03:17:38;8.30;99.90
18321;DHT22;54904;54.350;18.664;2024-02-04T03:20:06;8.30;99.90
18321;DHT22;54904;54.350;18.664;2024-02-04T03:22:33;8.30;99.90
18321;DHT22;54904;54.350;18.664;2024-02-04T03:25:01;8.30;99.90
18321;DHT22;54904;54.350;18.664;2024-02-04T03:27:28;8.30;99.90
18321;DHT22;54904;54.350;18.664;2024-02-04T03:29:55;8.30;99.90
18321;DHT22;54904;54.350;18.664;2024-02-04T03:32:24;8.30;99.90
18321;DHT22;54904;54.350;18.664;2024-02-04T03:34:51;8.30;99.90
18321;DHT22;54904;54.350;18.664;2024-02-04T03:37:18;8.30;99.90
18321;DHT22;54904;54.350;18.664;2024-02-04T03:39:45;8.30;99.90
18321;DHT22;54904;54.350;18.664;2024-02-04T03:42:12;8.30;99.90
18321;DHT22;54904;54.350;18.664;2024-02-04T03:44:39;8.30;99.90
18321;DHT22;54904;54.350;18.664;2024-02-04T03:47:06;8.30;99.90
18321;DHT22;54904;54.350;18.664;2024-02-04T03:49:35;8.30;99.90
18321;DHT22;54904;54.350;18.664;2024-02-04T03:52:02;8.20;99.90
18321;DHT22;54904;54.350;18.664;2024-02-04T03:54:29;8.20;99.90
18321;DHT22;54904;54.350;18.664;2024-02-04T03:56:57;8.20;99.90
18321;DHT22;54904;54.350;18.664;2024-02-04T03:59:24;8.20;99.90
18321;DHT22;54904;54.350;18.664;2024-02-04T04:01:51;8.20;99.90
18321;DHT22;54904;54.350;18.664;2024-02-04T04:04:20;8.20;99.90
18321;DHT22;54904;54.350;18.664;2024-02-04T04:06:49;8.20;99.90
18321;DHT22;54904;54.350;18.664;2024-02-04T04:09:15;8.10;99.90
18321;DHT22;54904;54.350;18.664;2024-02-04T04:11:42;8.10;99.90
18321;DHT22;54904;54.350;18.664;2024-02-04T04:14:12;8.10;99.90
18321;DHT22;54904;54.350;18.664;2024-02-04T04:16:39;8.10;99.90
18321;DHT22;54904;54.350;18.664;2024-02-04T04:19:06;8.10;99.90
18321;DHT22;54904;54.350;18.664;2024-02-04T04:21:33;8.10;99.90
18321;DHT22;54904;54.350;18.664;2024-02-04T04:24:03;8.10;99.90
18321;DHT22;54904;54.350;18.664;2024-02-04T04:26:30;8.10;99.90
18321;DHT22;54904;54.350;18.664;2024-02-04T04:28:57;8.10;99.90
18321;DHT22;54904;54.350;18.664;2024-02-04T04:31:24;8.10;99.90
18321;DHT22;54904;54.350;18.664;2024-02-04T04:33:51;8.10;99.90
18321;DHT22;54904;54.350;18.664;2024-02-04T04:36:19;8.10;99.90
18321;DHT22;54904;54.350;18.664;2024-02-04T04:38:46;8.10;99.90
18321;DHT22;54904;54.350;18.664;2024-02-04T04:41:17;8.10;99.90
18321;DHT22;54904;54.350;18.664;2024-02-04T04:43:44;8.10;99.90
18321;DHT22;54904;54.350;18.664;2024-02-04T04:46:11;8.10;99.90
18321;DHT22;54904;54.350;18.664;2024-02-04T04:48:38;8.10;99.90
18321;DHT22;54904;54.350;18.664;2024-02-04T04:51:07;8.10;99.90
18321;DHT22;54904;54.350;18.664;2024-02-04T04:53:34;8.10;99.90
18321;DHT22;54904;54.350;18.664;2024-02-04T04:56:01;8.10;99.90
18321;DHT22;54904;54.350;18.664;2024-02-04T04:58:30;8.10;99.90
18321;DHT22;54904;54.350;18.664;2024-02-04T05:00:57;8.10;99.90
18321;DHT22;54904;54.350;18.664;2024-02-04T05:03:24;8.10;99.90
18321;DHT22;54904;54.350;18.664;2024-02-04T05:05:51;8.10;99.90
18321;DHT22;54904;54.350;18.664;2024-02-04T05:08:18;8.10;99.90
18321;DHT22;54904;54.350;18.664;2024-02-04T05:10:45;8.10;99.90
18321;DHT22;54904;54.350;18.664;2024-02-04T05:13:12;8.10;99.90
18321;DHT22;54904;54.350;18.664;2024-02-04T05:15:40;8.10;99.90
18321;DHT22;54904;54.350;18.664;2024-02-04T05:18:07;8.10;99.90
18321;DHT22;54904;54.350;18.664;2024-02-04T05:20:34;8.10;99.90
18321;DHT22;54904;54.350;18.664;2024-02-04T05:23:01;8.10;99.90
18321;DHT22;54904;54.350;18.664;2024-02-04T05:25:28;8.10;99.90
18321;DHT22;54904;54.350;18.664;2024-02-04T05:27:56;8.10;99.90
18321;DHT22;54904;54.350;18.664;2024-02-04T05:30:23;8.10;99.90
18321;DHT22;54904;54.350;18.664;2024-02-04T05:32:51;8.10;99.90
18321;DHT22;54904;54.350;18.664;2024-02-04T05:35:18;8.10;99.90
18321;DHT22;54904;54.350;18.664;2024-02-04T05:37:46;8.10;99.90
18321;DHT22;54904;54.350;18.664;2024-02-04T05:40:13;8.10;99.90
18321;DHT22;54904;54.350;18.664;2024-02-04T05:42:42;8.10;99.90
18321;DHT22;54904;54.350;18.664;2024-02-04T05:45:09;8.10;99.90
18321;DHT22;54904;54.350;18.664;2024-02-04T05:47:36;8.10;99.90
18321;DHT22;54904;54.350;18.664;2024-02-04T05:50:06;8.10;99.90
18321;DHT22;54904;54.350;18.664;2024-02-04T05:52:33;8.10;99.90
18321;DHT22;54904;54.350;18.664;2024-02-04T05:55:00;8.20;99.90
18321;DHT22;54904;54.350;18.664;2024-02-04T05:57:27;8.20;99.90
18321;DHT22;54904;54.350;18.664;2024-02-04T05:59:54;8.20;99.90
18321;DHT22;54904;54.350;18.664;2024-02-04T06:02:21;8.20;99.90
18321;DHT22;54904;54.350;18.664;2024-02-04T06:04:48;8.20;99.90
18321;DHT22;54904;54.350;18.664;2024-02-04T06:07:17;8.10;99.90
18321;DHT22;54904;54.350;18.664;2024-02-04T06:09:44;8.20;99.90
18321;DHT22;54904;54.350;18.664;2024-02-04T06:12:11;8.20;99.90
18321;DHT22;54904;54.350;18.664;2024-02-04T06:14:38;8.20;99.90
18321;DHT22;54904;54.350;18.664;2024-02-04T06:17:05;8.20;99.90
18321;DHT22;54904;54.350;18.664;2024-02-04T06:19:34;8.20;99.90
18321;DHT22;54904;54.350;18.664;2024-02-04T06:22:01;8.30;99.90
18321;DHT22;54904;54.350;18.664;2024-02-04T06:24:29;8.30;99.90
18321;DHT22;54904;54.350;18.664;2024-02-04T06:26:56;8.30;99.90
18321;DHT22;54904;54.350;18.664;2024-02-04T06:29:23;8.30;99.90
18321;DHT22;54904;54.350;18.664;2024-02-04T06:31:50;8.30;99.90
18321;DHT22;54904;54.350;18.664;2024-02-04T06:34:17;8.30;99.90
18321;DHT22;54904;54.350;18.664;2024-02-04T06:36:44;8.30;99.90
18321;DHT22;54904;54.350;18.664;2024-02-04T06:39:11;8.20;99.90
18321;DHT22;54904;54.350;18.664;2024-02-04T06:41:40;8.20;99.90
18321;DHT22;54904;54.350;18.664;2024-02-04T06:44:07;8.30;99.90
18321;DHT22;54904;54.350;18.664;2024-02-04T06:46:34;8.20;99.90
18321;DHT22;54904;54.350;18.664;2024-02-04T06:49:01;8.30;99.90
18321;DHT22;54904;54.350;18.664;2024-02-04T06:51:28;8.20;99.90
18321;DHT22;54904;54.350;18.664;2024-02-04T06:53:55;8.30;99.90
18321;DHT22;54904;54.350;18.664;2024-02-04T06:56:23;8.20;99.90
18321;DHT22;54904;54.350;18.664;2024-02-04T06:58:51;8.30;99.90
18321;DHT22;54904;54.350;18.664;2024-02-04T07:01:18;8.20;99.90
18321;DHT22;54904;54.350;18.664;2024-02-04T07:03:45;8.20;99.90
18321;DHT22;54904;54.350;18.664;2024-02-04T07:06:12;8.20;99.90
18321;DHT22;54904;54.350;18.664;2024-02-04T07:08:39;8.20;99.90
18321;DHT22;54904;54.350;18.664;2024-02-04T07:11:06;8.20;99.90
18321;DHT22;54904;54.350;18.664;2024-02-04T07:13:33;8.20;99.90
18321;DHT22;54904;54.350;18.664;2024-02-04T07:16:02;8.20;99.90
18321;DHT22;54904;54.350;18.664;2024-02-04T07:18:29;8.20;99.90
18321;DHT22;54904;54.350;18.664;2024-02-04T07:20:58;8.20;99.90
18321;DHT22;54904;54.350;18.664;2024-02-04T07:23:25;8.20;99.90
18321;DHT22;54904;54.350;18.664;2024-02-04T07:25:52;8.20;99.90
18321;DHT22;54904;54.350;18.664;2024-02-04T07:28:19;8.20;99.90
18321;DHT22;54904;54.350;18.664;2024-02-04T07:30:46;8.20;99.90
18321;DHT22;54904;54.350;18.664;2024-02-04T07:33:15;8.20;99.90
18321;DHT22;54904;54.350;18.664;2024-02-04T07:35:42;8.20;99.90
18321;DHT22;54904;54.350;18.664;2024-02-04T07:38:09;8.20;99.90
18321;DHT22;54904;54.350;18.664;2024-02-04T07:40:36;8.10;99.90
18321;DHT22;54904;54.350;18.664;2024-02-04T07:43:03;8.10;99.90
18321;DHT22;54904;54.350;18.664;2024-02-04T07:45:30;8.20;99.90
18321;DHT22;54904;54.350;18.664;2024-02-04T07:47:57;8.10;99.90
18321;DHT22;54904;54.350;18.664;2024-02-04T07:50:25;8.20;99.90
18321;DHT22;54904;54.350;18.664;2024-02-04T07:52:53;8.20;99.90
18321;DHT22;54904;54.350;18.664;2024-02-04T07:55:20;8.20;99.90
18321;DHT22;54904;54.350;18.664;2024-02-04T07:57:47;8.20;99.90
18321;DHT22;54904;54.350;18.664;2024-02-04T08:00:14;8.20;99.90
18321;DHT22;54904;54.350;18.664;2024-02-04T08:02:44;8.20;99.90
18321;DHT22;54904;54.350;18.664;2024-02-04T08:05:12;8.20;99.90
18321;DHT22;54904;54.350;18.664;2024-02-04T08:07:41;8.20;99.90
18321;DHT22;54904;54.350;18.664;2024-02-04T08:10:08;8.20;99.90
18321;DHT22;54904;54.350;18.664;2024-02-04T08:12:35;8.20;99.90
18321;DHT22;54904;54.350;18.664;2024-02-04T08:15:03;8.30;99.90
18321;DHT22;54904;54.350;18.664;2024-02-04T08:17:30;8.20;99.90
18321;DHT22;54904;54.350;18.664;2024-02-04T08:19:58;8.20;99.90
18321;DHT22;54904;54.350;18.664;2024-02-04T08:22:25;8.20;99.90
18321;DHT22;54904;54.350;18.664;2024-02-04T08:24:54;8.30;99.90
18321;DHT22;54904;54.350;18.664;2024-02-04T08:27:21;8.20;99.90
18321;DHT22;54904;54.350;18.664;2024-02-04T08:29:48;8.20;99.90
18321;DHT22;54904;54.350;18.664;2024-02-04T08:32:15;8.30;99.90
18321;DHT22;54904;54.350;18.664;2024-02-04T08:34:42;8.20;99.90
18321;DHT22;54904;54.350;18.664;2024-02-04T08:37:11;8.20;99.90
18321;DHT22;54904;54.350;18.664;2024-02-04T08:39:38;8.20;99.90
18321;DHT22;54904;54.350;18.664;2024-02-04T08:42:06;8.20;99.90
18321;DHT22;54904;54.350;18.664;2024-02-04T08:44:33;8.20;99.90
18321;DHT22;54904;54.350;18.664;2024-02-04T08:47:00;8.30;99.90
18321;DHT22;54904;54.350;18.664;2024-02-04T08:49:29;8.30;99.90
18321;DHT22;54904;54.350;18.664;2024-02-04T08:51:56;8.30;99.90
18321;DHT22;54904;54.350;18.664;2024-02-04T08:54:23;8.30;99.90
18321;DHT22;54904;54.350;18.664;2024-02-04T08:56:50;8.30;99.90
18321;DHT22;54904;54.350;18.664;2024-02-04T08:59:18;8.30;99.90
18321;DHT22;54904;54.350;18.664;2024-02-04T09:01:45;8.30;99.90
18321;DHT22;54904;54.350;18.664;2024-02-04T09:04:12;8.40;99.90
18321;DHT22;54904;54.350;18.664;2024-02-04T09:06:39;8.30;99.90
18321;DHT22;54904;54.350;18.664;2024-02-04T09:09:07;8.30;99.90
18321;DHT22;54904;54.350;18.664;2024-02-04T09:11:35;8.30;99.90
18321;DHT22;54904;54.350;18.664;2024-02-04T09:14:02;8.30;99.90
18321;DHT22;54904;54.350;18.664;2024-02-04T09:16:31;8.30;99.90
18321;DHT22;54904;54.350;18.664;2024-02-04T09:18:58;8.30;99.90
18321;DHT22;54904;54.350;18.664;2024-02-04T09:21:25;8.30;99.90
18321;DHT22;54904;54.350;18.664;2024-02-04T09:23:52;8.30;99.90
18321;DHT22;54904;54.350;18.664;2024-02-04T09:26:19;8.30;99.90
18321;DHT22;54904;54.350;18.664;2024-02-04T09:28:46;8.30;99.90
18321;DHT22;54904;54.350;18.664;2024-02-04T09:31:13;8.30;99.90
18321;DHT22;54904;54.350;18.664;2024-02-04T09:33:41;8.30;99.90
18321;DHT22;54904;54.350;18.664;2024-02-04T09:36:09;8.30;99.90
18321;DHT22;54904;54.350;18.664;2024-02-04T09:38:36;8.40;99.90
18321;DHT22;54904;54.350;18.664;2024-02-04T09:41:03;8.40;99.90
18321;DHT22;54904;54.350;18.664;2024-02-04T09:43:32;8.40;99.90
18321;DHT22;54904;54.350;18.664;2024-02-04T09:45:59;8.30;99.90
18321;DHT22;54904;54.350;18.664;2024-02-04T09:48:31;8.30;99.90
18321;DHT22;54904;54.350;18.664;2024-02-04T09:51:00;8.40;99.90
18321;DHT22;54904;54.350;18.664;2024-02-04T09:53:32;8.40;99.90
18321;DHT22;54904;54.350;18.664;2024-02-04T09:56:02;8.40;99.90
18321;DHT22;54904;54.350;18.664;2024-02-04T09:58:29;8.40;99.90
18321;DHT22;54904;54.350;18.664;2024-02-04T10:00:56;8.50;99.90
18321;DHT22;54904;54.350;18.664;2024-02-04T10:03:24;8.50;99.90
18321;DHT22;54904;54.350;18.664;2024-02-04T10:05:51;8.50;99.90
18321;DHT22;54904;54.350;18.664;2024-02-04T10:08:19;8.50;99.90
18321;DHT22;54904;54.350;18.664;2024-02-04T10:10:47;8.50;99.90
18321;DHT22;54904;54.350;18.664;2024-02-04T10:13:14;8.50;99.90
18321;DHT22;54904;54.350;18.664;2024-02-04T10:15:41;8.50;99.90
18321;DHT22;54904;54.350;18.664;2024-02-04T10:18:08;8.50;99.90
18321;DHT22;54904;54.350;18.664;2024-02-04T10:20:36;8.50;99.90
18321;DHT22;54904;54.350;18.664;2024-02-04T10:23:04;8.50;99.90
18321;DHT22;54904;54.350;18.664;2024-02-04T10:25:32;8.50;99.90
18321;DHT22;54904;54.350;18.664;2024-02-04T10:27:59;8.50;99.90
18321;DHT22;54904;54.350;18.664;2024-02-04T10:30:26;8.50;99.90
18321;DHT22;54904;54.350;18.664;2024-02-04T10:32:54;8.50;99.90
18321;DHT22;54904;54.350;18.664;2024-02-04T10:35:21;8.60;99.90
18321;DHT22;54904;54.350;18.664;2024-02-04T10:37:49;8.60;99.90
18321;DHT22;54904;54.350;18.664;2024-02-04T10:40:18;8.60;99.90
18321;DHT22;54904;54.350;18.664;2024-02-04T10:42:47;8.60;99.90
18321;DHT22;54904;54.350;18.664;2024-02-04T10:45:17;8.50;99.90
18321;DHT22;54904;54.350;18.664;2024-02-04T10:47:52;8.50;99.90
18321;DHT22;54904;54.350;18.664;2024-02-04T10:50:23;8.50;99.90
18321;DHT22;54904;54.350;18.664;2024-02-04T10:52:51;8.50;99.90
18321;DHT22;54904;54.350;18.664;2024-02-04T10:55:22;8.20;99.90
18321;DHT22;54904;54.350;18.664;2024-02-04T10:57:54;8.40;99.90
18321;DHT22;54904;54.350;18.664;2024-02-04T11:00:22;8.40;99.90
18321;DHT22;54904;54.350;18.664;2024-02-04T11:02:51;8.50;99.90
18321;DHT22;54904;54.350;18.664;2024-02-04T11:05:23;8.40;99.90
18321;DHT22;54904;54.350;18.664;2024-02-04T11:07:51;8.40;99.90
18321;DHT22;54904;54.350;18.664;2024-02-04T11:10:19;8.40;99.90
18321;DHT22;54904;54.350;18.664;2024-02-04T11:12:46;8.40;99.90
18321;DHT22;54904;54.350;18.664;2024-02-04T11:15:17;8.40;99.90
18321;DHT22;54904;54.350;18.664;2024-02-04T11:21:08;8.50;99.90
18321;DHT22;54904;54.350;18.664;2024-02-04T11:23:47;8.40;99.90
18321;DHT22;54904;54.350;18.664;2024-02-04T11:26:17;8.40;99.90
18321;DHT22;54904;54.350;18.664;2024-02-04T11:28:45;8.40;99.90
18321;DHT22;54904;54.350;18.664;2024-02-04T11:31:17;8.40;99.90
18321;DHT22;54904;54.350;18.664;2024-02-04T11:33:44;8.50;99.90
18321;DHT22;54904;54.350;18.664;2024-02-04T11:36:13;8.50;99.90
18321;DHT22;54904;54.350;18.664;2024-02-04T11:38:41;8.40;99.90
18321;DHT22;54904;54.350;18.664;2024-02-04T11:41:08;8.50;99.90
18321;DHT22;54904;54.350;18.664;2024-02-04T11:43:37;8.50;99.90
18321;DHT22;54904;54.350;18.664;2024-02-04T11:46:04;8.50;99.90
18321;DHT22;54904;54.350;18.664;2024-02-04T11:48:34;8.50;99.90
18321;DHT22;54904;54.350;18.664;2024-02-04T11:51:04;8.20;99.90
18321;DHT22;54904;54.350;18.664;2024-02-04T11:53:31;8.50;99.90
18321;DHT22;54904;54.350;18.664;2024-02-04T11:56:00;8.50;99.90
18321;DHT22;54904;54.350;18.664;2024-02-04T11:58:29;8.50;99.90
18321;DHT22;54904;54.350;18.664;2024-02-04T12:00:57;8.50;99.90
18321;DHT22;54904;54.350;18.664;2024-02-04T12:03:31;8.50;99.90
18321;DHT22;54904;54.350;18.664;2024-02-04T12:06:00;8.50;99.90
18321;DHT22;54904;54.350;18.664;2024-02-04T12:08:28;8.50;99.90
18321;DHT22;54904;54.350;18.664;2024-02-04T12:10:55;8.50;99.90
18321;DHT22;54904;54.350;18.664;2024-02-04T12:13:24;8.50;99.90
18321;DHT22;54904;54.350;18.664;2024-02-04T12:15:51;8.50;99.90
18321;DHT22;54904;54.350;18.664;2024-02-04T12:18:18;8.50;99.90
18321;DHT22;54904;54.350;18.664;2024-02-04T12:20:47;8.50;99.90
18321;DHT22;54904;54.350;18.664;2024-02-04T12:23:17;8.50;99.90
18321;DHT22;54904;54.350;18.664;2024-02-04T12:25:45;8.50;99.90
18321;DHT22;54904;54.350;18.664;2024-02-04T12:28:14;8.40;99.90
18321;DHT22;54904;54.350;18.664;2024-02-04T12:30:41;8.40;99.90
18321;DHT22;54904;54.350;18.664;2024-02-04T12:33:18;8.40;99.90
18321;DHT22;54904;54.350;18.664;2024-02-04T12:35:49;8.40;99.90
18321;DHT22;54904;54.350;18.664;2024-02-04T12:38:19;8.40;99.90
18321;DHT22;54904;54.350;18.664;2024-02-04T12:40:46;8.40;99.90
18321;DHT22;54904;54.350;18.664;2024-02-04T12:43:13;8.40;99.90
18321;DHT22;54904;54.350;18.664;2024-02-04T12:45:40;8.50;99.90
18321;DHT22;54904;54.350;18.664;2024-02-04T12:48:08;8.40;99.90
18321;DHT22;54904;54.350;18.664;2024-02-04T12:50:37;8.40;99.90
18321;DHT22;54904;54.350;18.664;2024-02-04T12:53:05;8.40;99.90
18321;DHT22;54904;54.350;18.664;2024-02-04T12:55:35;8.40;99.90
18321;DHT22;54904;54.350;18.664;2024-02-04T12:58:03;8.50;99.90
18321;DHT22;54904;54.350;18.664;2024-02-04T13:00:31;8.50;99.90
18321;DHT22;54904;54.350;18.664;2024-02-04T13:02:58;8.50;99.90
18321;DHT22;54904;54.350;18.664;2024-02-04T13:05:26;8.50;99.90
18321;DHT22;54904;54.350;18.664;2024-02-04T13:07:56;8.50;99.90
18321;DHT22;54904;54.350;18.664;2024-02-04T13:10:24;8.40;99.90
18321;DHT22;54904;54.350;18.664;2024-02-04T13:13:03;8.40;99.90
18321;DHT22;54904;54.350;18.664;2024-02-04T13:15:33;8.50;99.90
18321;DHT22;54904;54.350;18.664;2024-02-04T13:18:00;8.40;99.90
18321;DHT22;54904;54.350;18.664;2024-02-04T13:20:27;8.40;99.90
18321;DHT22;54904;54.350;18.664;2024-02-04T13:22:54;8.40;99.90
18321;DHT22;54904;54.350;18.664;2024-02-04T13:25:22;8.40;99.90
18321;DHT22;54904;54.350;18.664;2024-02-04T13:27:50;8.40;99.90
18321;DHT22;54904;54.350;18.664;2024-02-04T13:30:19;8.40;99.90
18321;DHT22;54904;54.350;18.664;2024-02-04T13:32:46;8.40;99.90
18321;DHT22;54904;54.350;18.664;2024-02-04T13:35:13;8.40;99.90
18321;DHT22;54904;54.350;18.664;2024-02-04T13:37:43;8.30;99.90
18321;DHT22;54904;54.350;18.664;2024-02-04T13:40:13;8.30;99.90
18321;DHT22;54904;54.350;18.664;2024-02-04T13:42:41;8.30;99.90
18321;DHT22;54904;54.350;18.664;2024-02-04T13:45:09;8.40;99.90
18321;DHT22;54904;54.350;18.664;2024-02-04T13:47:37;8.30;99.90
18321;DHT22;54904;54.350;18.664;2024-02-04T13:50:05;8.40;99.90
18321;DHT22;54904;54.350;18.664;2024-02-04T13:52:34;8.30;99.90
18321;DHT22;54904;54.350;18.664;2024-02-04T13:55:01;8.30;99.90
18321;DHT22;54904;54.350;18.664;2024-02-04T13:57:30;8.30;99.90
18321;DHT22;54904;54.350;18.664;2024-02-04T13:59:58;8.30;99.90
18321;DHT22;54904;54.350;18.664;2024-02-04T14:02:25;8.30;99.90
18321;DHT22;54904;54.350;18.664;2024-02-04T14:04:56;8.40;99.90
18321;DHT22;54904;54.350;18.664;2024-02-04T14:07:24;8.40;99.90
18321;DHT22;54904;54.350;18.664;2024-02-04T14:09:51;8.40;99.90
18321;DHT22;54904;54.350;18.664;2024-02-04T14:12:18;8.40;99.90
18321;DHT22;54904;54.350;18.664;2024-02-04T14:14:45;8.40;99.90
18321;DHT22;54904;54.350;18.664;2024-02-04T14:17:12;8.40;99.90
18321;DHT22;54904;54.350;18.664;2024-02-04T14:19:39;8.40;99.90
18321;DHT22;54904;54.350;18.664;2024-02-04T14:22:08;8.50;99.90
18321;DHT22;54904;54.350;18.664;2024-02-04T14:24:35;8.50;99.90
18321;DHT22;54904;54.350;18.664;2024-02-04T14:27:02;8.50;99.90
18321;DHT22;54904;54.350;18.664;2024-02-04T14:29:29;8.50;99.90
18321;DHT22;54904;54.350;18.664;2024-02-04T14:31:56;8.50;99.90
18321;DHT22;54904;54.350;18.664;2024-02-04T14:34:23;8.50;99.90
18321;DHT22;54904;54.350;18.664;2024-02-04T14:36:51;8.50;99.90
18321;DHT22;54904;54.350;18.664;2024-02-04T14:39:19;8.60;99.90
18321;DHT22;54904;54.350;18.664;2024-02-04T14:41:46;8.60;99.90
18321;DHT22;54904;54.350;18.664;2024-02-04T14:44:13;8.60;99.90
18321;DHT22;54904;54.350;18.664;2024-02-04T14:46:40;8.60;99.90
18321;DHT22;54904;54.350;18.664;2024-02-04T14:49:08;8.60;99.90
18321;DHT22;54904;54.350;18.664;2024-02-04T14:51:38;8.60;99.90
18321;DHT22;54904;54.350;18.664;2024-02-04T14:54:05;8.60;99.90
18321;DHT22;54904;54.350;18.664;2024-02-04T14:56:38;8.60;99.90
18321;DHT22;54904;54.350;18.664;2024-02-04T14:59:08;8.60;99.90
18321;DHT22;54904;54.350;18.664;2024-02-04T15:01:35;8.60;99.90
18321;DHT22;54904;54.350;18.664;2024-02-04T15:04:02;8.60;99.90
18321;DHT22;54904;54.350;18.664;2024-02-04T15:06:29;8.60;99.90
18321;DHT22;54904;54.350;18.664;2024-02-04T15:08:57;8.60;99.90
18321;DHT22;54904;54.350;18.664;2024-02-04T15:11:26;8.60;99.90
18321;DHT22;54904;54.350;18.664;2024-02-04T15:13:58;8.70;99.90
18321;DHT22;54904;54.350;18.664;2024-02-04T15:16:25;8.60;99.90
18321;DHT22;54904;54.350;18.664;2024-02-04T15:18:53;8.60;99.90
18321;DHT22;54904;54.350;18.664;2024-02-04T15:21:20;8.60;99.90
18321;DHT22;54904;54.350;18.664;2024-02-04T15:23:50;8.60;99.90
18321;DHT22;54904;54.350;18.664;2024-02-04T15:26:17;8.60;99.90
18321;DHT22;54904;54.350;18.664;2024-02-04T15:28:47;8.60;99.90
18321;DHT22;54904;54.350;18.664;2024-02-04T15:31:17;8.50;99.90
18321;DHT22;54904;54.350;18.664;2024-02-04T15:33:45;8.50;99.90
18321;DHT22;54904;54.350;18.664;2024-02-04T15:36:12;8.50;99.90
18321;DHT22;54904;54.350;18.664;2024-02-04T15:38:40;8.50;99.90